Time;durP1;ratioP1;P1;durP2;ratioP2;P2;SDS_P1;SDS_P2;PMS_P1;PMS_P2;Temp;Humidity;BMP_temperature;BMP_pressure;BME280_temperature;BME280_humidity;BME280_pressure;Samples;Min_cycle;Max_cycle;Signal;HPM_P1;HPM_P2
2021/12/02 00:01:37;;;;;;;1.40;0.90;;;6.60;99.90;;;;;;5072421;28;20196;-81
2021/12/02 00:04:06;;;;;;;2.15;1.33;;;6.60;99.90;;;;;;5068266;28;20858;-80
2021/12/02 00:06:33;;;;;;;1.00;0.90;;;6.60;99.90;;;;;;5067631;28;20215;-81
2021/12/02 00:09:00;;;;;;;1.90;1.20;;;6.50;99.90;;;;;;5070122;28;20197;-81
2021/12/02 00:11:27;;;;;;;1.88;0.90;;;6.50;99.90;;;;;;5066310;28;20189;-81
2021/12/02 00:13:58;;;;;;;2.83;1.10;;;6.40;99.90;;;;;;5068173;28;20216;-81
2021/12/02 00:16:33;;;;;;;2.30;1.10;;;6.40;99.90;;;;;;5068318;28;20228;-81
2021/12/02 00:21:50;;;;;;;1.75;1.00;;;6.20;99.90;;;;;;5068175;28;20726;-80
2021/12/02 00:24:18;;;;;;;2.53;1.00;;;6.10;99.90;;;;;;5068113;28;20228;-81
2021/12/02 00:26:47;;;;;;;1.40;0.85;;;6.00;99.90;;;;;;5078603;28;20705;-80
2021/12/02 00:29:19;;;;;;;2.35;0.98;;;6.00;99.90;;;;;;5072874;28;20279;-80
2021/12/02 00:31:48;;;;;;;1.27;1.15;;;5.90;99.90;;;;;;5072234;28;20201;-80
2021/12/02 00:34:16;;;;;;;1.80;0.93;;;5.90;99.90;;;;;;5063754;28;20711;-81
2021/12/02 00:36:43;;;;;;;2.85;1.40;;;5.80;99.90;;;;;;5072056;28;20305;-81
2021/12/02 00:39:13;;;;;;;3.22;1.30;;;5.80;99.90;;;;;;5070770;28;20257;-81
2021/12/02 00:41:41;;;;;;;1.48;1.10;;;5.80;99.90;;;;;;5072994;28;20197;-81
2021/12/02 00:44:09;;;;;;;2.60;1.17;;;5.80;99.90;;;;;;5074927;28;20217;-81
2021/12/02 00:46:38;;;;;;;4.47;1.70;;;5.80;99.90;;;;;;5072319;28;20193;-81
2021/12/02 00:49:11;;;;;;;1.63;1.00;;;5.80;99.90;;;;;;5074007;28;20291;-81
2021/12/02 00:51:39;;;;;;;1.90;1.00;;;5.70;99.90;;;;;;5070636;28;20222;-81
2021/12/02 00:54:07;;;;;;;1.60;0.93;;;5.70;99.90;;;;;;5070110;28;20339;-80
2021/12/02 00:56:34;;;;;;;1.33;1.00;;;5.70;99.90;;;;;;5071444;28;20579;-80
2021/12/02 00:59:03;;;;;;;1.60;0.98;;;5.80;99.90;;;;;;5062764;28;20648;-81
2021/12/02 01:01:34;;;;;;;3.25;1.20;;;5.80;99.90;;;;;;5072253;28;20208;-81
2021/12/02 01:04:07;;;;;;;1.50;0.90;;;5.80;99.90;;;;;;5071609;28;20224;-80
2021/12/02 01:06:34;;;;;;;1.75;1.00;;;5.90;99.90;;;;;;5071244;28;20204;-82
2021/12/02 01:09:02;;;;;;;1.42;1.00;;;6.00;99.90;;;;;;5087732;28;20277;-81
2021/12/02 01:11:29;;;;;;;4.03;1.00;;;6.10;99.90;;;;;;5072122;28;20197;-81
2021/12/02 01:13:56;;;;;;;2.28;0.90;;;6.20;99.90;;;;;;5069547;28;20261;-80
2021/12/02 01:16:23;;;;;;;1.75;1.33;;;6.30;99.90;;;;;;5072898;28;20721;-80
2021/12/02 01:18:51;;;;;;;1.25;1.15;;;6.30;99.90;;;;;;5068988;28;20203;-80
2021/12/02 01:21:21;;;;;;;2.53;1.65;;;6.40;99.90;;;;;;5071682;28;20204;-81
2021/12/02 01:23:51;;;;;;;2.50;1.15;;;6.40;99.90;;;;;;5072800;28;20247;-81
2021/12/02 01:26:19;;;;;;;2.20;1.00;;;6.30;99.90;;;;;;5071157;28;20290;-80
2021/12/02 01:28:47;;;;;;;3.30;1.10;;;6.20;99.90;;;;;;5071904;28;20623;-81
2021/12/02 01:31:14;;;;;;;2.25;1.00;;;6.10;99.90;;;;;;5071361;28;20587;-80
2021/12/02 01:33:45;;;;;;;1.70;1.02;;;6.10;99.90;;;;;;5070623;28;20209;-80
2021/12/02 01:36:12;;;;;;;1.85;1.20;;;6.10;99.90;;;;;;5070846;28;20242;-81
2021/12/02 01:38:41;;;;;;;2.47;0.90;;;6.00;99.90;;;;;;5061671;28;20201;-80
2021/12/02 01:41:08;;;;;;;1.23;0.88;;;6.00;99.90;;;;;;5071280;28;20203;-81
2021/12/02 01:43:54;;;;;;;1.58;0.85;;;5.90;99.90;;;;;;5054731;28;20201;-81
2021/12/02 01:46:24;;;;;;;1.30;1.00;;;6.00;99.90;;;;;;5064614;28;20197;-81
2021/12/02 01:49:00;;;;;;;1.25;0.93;;;5.90;99.90;;;;;;5070725;28;20200;-81
2021/12/02 01:51:28;;;;;;;1.40;0.85;;;5.90;99.90;;;;;;5070509;28;20283;-81
2021/12/02 01:54:05;;;;;;;1.33;1.00;;;5.90;99.90;;;;;;5065885;28;20324;-80
2021/12/02 01:56:36;;;;;;;2.17;0.90;;;6.00;99.90;;;;;;5070164;28;20204;-81
2021/12/02 01:59:14;;;;;;;1.45;1.17;;;6.00;99.90;;;;;;5072207;28;20192;-81
2021/12/02 02:01:43;;;;;;;1.38;1.05;;;6.00;99.90;;;;;;5069401;28;20196;-80
2021/12/02 02:04:10;;;;;;;1.70;0.88;;;6.00;99.90;;;;;;5057848;28;20220;-81
2021/12/02 02:06:40;;;;;;;1.50;0.70;;;6.00;99.90;;;;;;5061364;28;20231;-81
2021/12/02 02:09:11;;;;;;;1.45;0.90;;;5.90;99.90;;;;;;5063773;28;20287;-81
2021/12/02 02:11:38;;;;;;;1.95;1.15;;;6.00;99.90;;;;;;5071549;28;20211;-81
2021/12/02 02:14:08;;;;;;;1.15;0.80;;;6.00;99.90;;;;;;5073142;28;20219;-81
2021/12/02 02:16:37;;;;;;;2.38;1.42;;;6.00;99.90;;;;;;5071769;28;21958;-81
2021/12/02 02:19:04;;;;;;;2.85;1.00;;;6.00;99.90;;;;;;5070986;28;20254;-80
2021/12/02 02:21:35;;;;;;;3.08;1.00;;;6.00;99.90;;;;;;5069993;28;20193;-81
2021/12/02 02:24:03;;;;;;;2.45;1.02;;;5.90;99.90;;;;;;5070638;28;20259;-81
2021/12/02 02:26:34;;;;;;;3.85;1.67;;;5.80;99.90;;;;;;5071336;28;20259;-81
2021/12/02 02:29:02;;;;;;;1.75;1.00;;;5.90;99.90;;;;;;5074206;28;20210;-81
2021/12/02 02:31:31;;;;;;;3.20;1.50;;;5.80;99.90;;;;;;5077006;28;20264;-81
2021/12/02 02:33:58;;;;;;;1.52;0.90;;;5.80;99.90;;;;;;5075782;28;20236;-81
2021/12/02 02:36:28;;;;;;;4.15;1.10;;;5.70;99.90;;;;;;5066839;28;20537;-80
2021/12/02 02:38:57;;;;;;;1.58;1.10;;;5.70;99.90;;;;;;5063717;28;20291;-81
2021/12/02 02:41:26;;;;;;;2.22;1.25;;;5.60;99.90;;;;;;5068510;28;20196;-81
2021/12/02 02:43:57;;;;;;;1.25;0.90;;;5.60;99.90;;;;;;5068604;28;20221;-81
2021/12/02 02:46:27;;;;;;;1.80;0.80;;;5.60;99.90;;;;;;5070635;28;20227;-81
2021/12/02 02:48:56;;;;;;;1.52;1.00;;;5.60;99.90;;;;;;5069489;28;20200;-80
2021/12/02 02:51:23;;;;;;;1.58;0.85;;;5.50;99.90;;;;;;5069843;28;20203;-81
2021/12/02 02:53:52;;;;;;;3.20;0.80;;;5.50;99.90;;;;;;5070354;28;20694;-80
2021/12/02 02:56:22;;;;;;;1.35;1.00;;;5.40;99.90;;;;;;5069669;28;20189;-80
2021/12/02 02:58:59;;;;;;;1.00;0.70;;;5.30;99.90;;;;;;5069071;28;20283;-81
2021/12/02 03:01:35;;;;;;;1.27;0.60;;;5.30;99.90;;;;;;5069530;28;20204;-80
2021/12/02 03:04:14;;;;;;;1.88;0.82;;;5.30;99.90;;;;;;5067516;28;20220;-80
2021/12/02 03:06:49;;;;;;;1.55;0.90;;;5.20;99.90;;;;;;5066768;28;20197;-80
2021/12/02 03:09:24;;;;;;;1.83;0.60;;;5.10;99.90;;;;;;5065222;28;20193;-81
2021/12/02 03:11:55;;;;;;;1.90;0.80;;;5.00;99.90;;;;;;5067574;28;20192;-81
2021/12/02 03:14:29;;;;;;;2.38;0.80;;;5.00;99.90;;;;;;5069467;28;20212;-81
2021/12/02 03:16:55;;;;;;;0.80;0.80;;;5.00;99.90;;;;;;5069075;28;20343;-80
2021/12/02 03:19:25;;;;;;;1.33;0.77;;;5.00;99.90;;;;;;5068557;28;20668;-81
2021/12/02 03:21:53;;;;;;;1.27;0.70;;;5.00;99.90;;;;;;5066649;28;20201;-81
2021/12/02 03:24:21;;;;;;;1.75;0.80;;;5.00;99.90;;;;;;5059679;28;20220;-81
2021/12/02 03:26:48;;;;;;;1.10;0.60;;;5.00;99.90;;;;;;5066313;28;20286;-81
2021/12/02 03:29:17;;;;;;;1.77;1.17;;;5.00;99.90;;;;;;5065409;28;20275;-81
2021/12/02 03:31:44;;;;;;;0.85;0.70;;;5.00;99.90;;;;;;5066739;28;20199;-81
2021/12/02 03:34:12;;;;;;;0.95;0.80;;;5.00;99.90;;;;;;5068853;28;20221;-81
2021/12/02 03:36:39;;;;;;;1.35;0.60;;;5.00;99.90;;;;;;5071613;28;20283;-81
2021/12/02 03:39:08;;;;;;;1.77;0.80;;;5.10;99.90;;;;;;5064757;28;20200;-81
2021/12/02 03:41:36;;;;;;;4.43;1.13;;;5.10;99.90;;;;;;5067595;28;20327;-81
2021/12/02 03:44:03;;;;;;;1.92;0.70;;;5.10;99.90;;;;;;5076333;28;20314;-81
2021/12/02 03:46:31;;;;;;;2.20;0.85;;;5.00;99.90;;;;;;5076882;28;20275;-81
2021/12/02 03:48:59;;;;;;;1.50;0.98;;;5.00;99.90;;;;;;5064408;28;20197;-81
2021/12/02 03:51:26;;;;;;;1.15;0.80;;;4.90;99.90;;;;;;5066540;28;20279;-81
2021/12/02 03:53:54;;;;;;;1.25;0.60;;;4.90;99.90;;;;;;5069056;28;20224;-81
2021/12/02 03:56:21;;;;;;;1.35;0.68;;;4.80;99.90;;;;;;5064643;28;20216;-80
2021/12/02 03:58:52;;;;;;;1.48;0.75;;;4.80;99.90;;;;;;5070772;28;20233;-81
2021/12/02 04:01:19;;;;;;;1.55;1.10;;;4.80;99.90;;;;;;5069236;28;20196;-80
2021/12/02 04:03:48;;;;;;;2.35;0.90;;;4.70;99.90;;;;;;5073676;28;20300;-81
2021/12/02 04:06:16;;;;;;;0.88;0.70;;;4.70;99.90;;;;;;5069816;28;20292;-81
2021/12/02 04:08:45;;;;;;;2.08;0.95;;;4.70;99.90;;;;;;5064176;28;20279;-81
2021/12/02 04:11:21;;;;;;;2.72;1.00;;;4.80;99.90;;;;;;5063777;28;20192;-81
2021/12/02 04:13:58;;;;;;;2.22;1.15;;;4.80;99.90;;;;;;5073347;28;20326;-80
2021/12/02 04:16:26;;;;;;;1.58;1.00;;;4.80;99.90;;;;;;5064022;28;20192;-81
2021/12/02 04:18:55;;;;;;;2.25;1.02;;;4.90;99.90;;;;;;5067974;28;20216;-81
2021/12/02 04:21:22;;;;;;;1.67;0.80;;;4.90;99.90;;;;;;5075038;28;20261;-81
2021/12/02 04:23:49;;;;;;;1.25;1.10;;;4.90;99.90;;;;;;5079280;28;20224;-80
2021/12/02 04:26:16;;;;;;;2.80;1.00;;;4.90;99.90;;;;;;5069387;28;20703;-74
2021/12/02 04:28:43;;;;;;;2.40;1.40;;;4.90;99.90;;;;;;5067935;28;20288;-74
2021/12/02 04:31:10;;;;;;;1.85;0.90;;;4.90;99.90;;;;;;5070014;28;20207;-77
2021/12/02 04:33:37;;;;;;;2.55;1.20;;;4.80;99.90;;;;;;5069618;28;20219;-77
2021/12/02 04:36:06;;;;;;;1.00;0.80;;;4.80;99.90;;;;;;5067336;28;20517;-74
2021/12/02 04:38:34;;;;;;;4.22;1.00;;;4.80;99.90;;;;;;5068707;28;20220;-78
2021/12/02 04:41:01;;;;;;;2.55;1.25;;;4.80;99.90;;;;;;5067615;28;20214;-73
2021/12/02 04:43:29;;;;;;;3.05;1.30;;;4.80;99.90;;;;;;5068904;28;20220;-74
2021/12/02 04:45:56;;;;;;;1.55;1.13;;;4.80;99.90;;;;;;5067550;28;20196;-74
2021/12/02 04:48:23;;;;;;;2.40;0.90;;;4.80;99.90;;;;;;5071099;28;20556;-75
2021/12/02 04:50:51;;;;;;;1.70;0.88;;;4.80;99.90;;;;;;5067572;28;20250;-73
2021/12/02 04:53:19;;;;;;;2.20;1.10;;;4.80;99.90;;;;;;5067855;28;20308;-74
2021/12/02 04:55:46;;;;;;;1.88;1.00;;;4.80;99.90;;;;;;5066150;28;21580;-74
2021/12/02 04:58:13;;;;;;;3.20;1.20;;;4.80;99.90;;;;;;5067619;28;20232;-74
2021/12/02 05:00:40;;;;;;;1.92;1.15;;;4.90;99.90;;;;;;5067586;28;20235;-73
2021/12/02 05:03:07;;;;;;;1.60;1.00;;;4.90;99.90;;;;;;5066860;28;20197;-73
2021/12/02 05:05:34;;;;;;;1.45;0.95;;;5.00;99.90;;;;;;5069753;28;20196;-73
2021/12/02 05:08:03;;;;;;;2.50;1.13;;;5.00;99.90;;;;;;5067723;28;20278;-74
2021/12/02 05:10:32;;;;;;;3.05;1.15;;;5.00;99.90;;;;;;5065513;28;20268;-74
2021/12/02 05:12:59;;;;;;;1.80;1.08;;;5.00;99.90;;;;;;5069488;28;20193;-74
2021/12/02 05:15:26;;;;;;;2.88;0.90;;;5.00;99.90;;;;;;5070925;28;20197;-76
2021/12/02 05:17:53;;;;;;;1.33;1.00;;;5.00;99.90;;;;;;5071512;28;20227;-74
2021/12/02 05:20:21;;;;;;;1.98;1.17;;;5.00;99.90;;;;;;5075269;28;20198;-74
2021/12/02 05:22:48;;;;;;;1.45;1.35;;;5.00;99.90;;;;;;5070791;28;20197;-73
2021/12/02 05:25:15;;;;;;;1.48;1.20;;;5.00;99.90;;;;;;5069057;28;20216;-74
2021/12/02 05:27:43;;;;;;;2.38;1.05;;;5.00;99.90;;;;;;5067569;28;20614;-74
2021/12/02 05:30:11;;;;;;;1.90;0.90;;;5.00;99.90;;;;;;5065579;28;20200;-74
2021/12/02 05:32:38;;;;;;;2.25;0.80;;;5.00;99.90;;;;;;5068450;28;20200;-73
2021/12/02 05:35:07;;;;;;;0.90;0.70;;;5.00;99.90;;;;;;5070761;28;20303;-73
2021/12/02 05:37:34;;;;;;;1.27;0.90;;;5.00;99.90;;;;;;5068451;28;20242;-74
2021/12/02 05:40:01;;;;;;;0.80;0.80;;;5.00;99.90;;;;;;5065439;28;20196;-74
2021/12/02 05:42:28;;;;;;;0.90;0.70;;;5.00;99.90;;;;;;5055285;28;20652;-75
2021/12/02 05:44:56;;;;;;;1.88;0.70;;;5.00;99.90;;;;;;5060126;28;20212;-78
2021/12/02 05:47:23;;;;;;;2.28;0.85;;;5.00;99.90;;;;;;5068948;28;20216;-78
2021/12/02 05:49:50;;;;;;;0.90;0.70;;;5.00;99.90;;;;;;5064149;28;20201;-79
2021/12/02 05:52:18;;;;;;;1.45;1.00;;;5.10;99.90;;;;;;5072307;28;20193;-75
2021/12/02 05:54:45;;;;;;;1.33;0.90;;;5.10;99.90;;;;;;5064477;28;20220;-74
2021/12/02 05:57:12;;;;;;;1.27;0.75;;;5.10;99.90;;;;;;5070226;28;20200;-74
2021/12/02 05:59:39;;;;;;;1.27;0.70;;;5.10;99.90;;;;;;5069008;28;20222;-75
2021/12/02 06:02:08;;;;;;;1.67;0.90;;;5.10;99.90;;;;;;5059453;28;20203;-75
2021/12/02 06:04:37;;;;;;;1.73;0.80;;;5.00;99.90;;;;;;5070242;28;20224;-75
2021/12/02 06:07:04;;;;;;;1.10;0.80;;;4.90;99.90;;;;;;5069553;28;20197;-74
2021/12/02 06:09:32;;;;;;;1.35;0.93;;;4.90;99.90;;;;;;5066847;28;20207;-74
2021/12/02 06:11:58;;;;;;;0.80;0.80;;;4.90;99.90;;;;;;5070738;28;20283;-74
2021/12/02 06:14:25;;;;;;;1.40;0.70;;;4.90;99.90;;;;;;5067052;28;20278;-74
2021/12/02 06:16:52;;;;;;;1.27;0.85;;;4.80;99.90;;;;;;5069637;28;20279;-74
2021/12/02 06:19:21;;;;;;;1.85;1.05;;;4.80;99.90;;;;;;5063866;28;20316;-75
2021/12/02 06:21:50;;;;;;;0.80;0.80;;;4.70;99.90;;;;;;5067764;28;20254;-74
2021/12/02 06:24:19;;;;;;;1.17;0.82;;;4.70;99.90;;;;;;5066514;28;20293;-74
2021/12/02 06:26:46;;;;;;;2.10;0.75;;;4.70;99.90;;;;;;5068325;28;20203;-74
2021/12/02 06:29:13;;;;;;;1.60;0.90;;;4.70;99.90;;;;;;5067515;28;20304;-74
2021/12/02 06:31:40;;;;;;;1.30;0.90;;;4.70;99.90;;;;;;5070143;28;20288;-75
2021/12/02 06:34:07;;;;;;;1.13;0.80;;;4.70;99.90;;;;;;5070097;28;20699;-74
2021/12/02 06:36:37;;;;;;;1.02;0.80;;;4.70;99.90;;;;;;5070772;28;20200;-75
2021/12/02 06:39:05;;;;;;;2.95;1.00;;;4.70;99.90;;;;;;5062807;28;20227;-74
2021/12/02 06:41:32;;;;;;;2.33;1.15;;;4.80;99.90;;;;;;5070299;28;20259;-74
2021/12/02 06:44:00;;;;;;;2.28;0.80;;;4.70;99.90;;;;;;5069800;28;20644;-75
2021/12/02 06:46:28;;;;;;;2.08;0.90;;;4.70;99.90;;;;;;5070986;28;20289;-74
2021/12/02 06:48:55;;;;;;;1.83;1.20;;;4.70;99.90;;;;;;5068593;28;20189;-75
2021/12/02 06:51:22;;;;;;;0.90;0.80;;;4.60;99.90;;;;;;5061872;28;20196;-74
2021/12/02 06:53:52;;;;;;;1.25;0.70;;;4.60;99.90;;;;;;5069547;28;20220;-74
2021/12/02 06:56:18;;;;;;;2.78;1.10;;;4.60;99.90;;;;;;5060179;28;20271;-74
2021/12/02 06:58:45;;;;;;;1.20;1.10;;;4.60;99.90;;;;;;5059885;28;20236;-75
2021/12/02 07:01:13;;;;;;;0.80;0.70;;;4.60;99.90;;;;;;5065053;28;20299;-75
2021/12/02 07:03:40;;;;;;;1.10;0.90;;;4.60;99.90;;;;;;5068770;28;20267;-74
2021/12/02 07:06:06;;;;;;;2.08;0.75;;;4.60;99.90;;;;;;5068260;28;20210;-74
2021/12/02 07:08:34;;;;;;;1.50;0.93;;;4.70;99.90;;;;;;5068170;28;20215;-74
2021/12/02 07:11:05;;;;;;;1.10;0.85;;;4.70;99.90;;;;;;5065844;28;20201;-75
2021/12/02 07:13:32;;;;;;;1.95;1.10;;;4.70;99.90;;;;;;5065483;28;20227;-75
2021/12/02 07:16:00;;;;;;;1.33;0.80;;;4.80;99.90;;;;;;5065187;28;20204;-75
2021/12/02 07:18:27;;;;;;;1.38;0.90;;;4.80;99.90;;;;;;5072037;28;20262;-74
2021/12/02 07:20:54;;;;;;;1.40;0.75;;;4.80;99.90;;;;;;5062516;28;20220;-75
2021/12/02 07:23:22;;;;;;;1.40;0.70;;;4.80;99.90;;;;;;5069392;28;20242;-74
2021/12/02 07:25:50;;;;;;;1.20;0.80;;;4.80;99.90;;;;;;5059414;28;20215;-74
2021/12/02 07:28:19;;;;;;;1.00;0.80;;;4.90;99.90;;;;;;5066298;28;20196;-75
2021/12/02 07:30:53;;;;;;;1.15;0.70;;;4.80;99.90;;;;;;5066707;28;20547;-74
2021/12/02 07:33:20;;;;;;;0.70;0.60;;;4.90;99.90;;;;;;5067345;28;20587;-74
2021/12/02 07:35:48;;;;;;;0.75;0.60;;;4.90;99.90;;;;;;5069142;28;20193;-75
2021/12/02 07:38:15;;;;;;;1.65;0.80;;;4.90;99.90;;;;;;5068757;28;20303;-74
2021/12/02 07:40:42;;;;;;;1.75;0.80;;;4.90;99.90;;;;;;5068447;28;20200;-75
2021/12/02 07:43:09;;;;;;;2.55;0.95;;;4.90;99.90;;;;;;5069404;28;20221;-75
2021/12/02 07:45:37;;;;;;;1.25;0.80;;;4.90;99.90;;;;;;5070865;28;20195;-74
2021/12/02 07:48:06;;;;;;;1.13;0.63;;;4.90;99.90;;;;;;5068918;28;20227;-74
2021/12/02 07:50:34;;;;;;;0.75;0.63;;;4.90;99.90;;;;;;5068434;28;20212;-75
2021/12/02 07:53:04;;;;;;;2.20;0.75;;;4.90;99.90;;;;;;5067896;28;20216;-75
2021/12/02 07:55:35;;;;;;;2.28;0.90;;;4.90;99.90;;;;;;5070439;28;20199;-74
2021/12/02 07:58:05;;;;;;;0.70;0.65;;;4.90;99.90;;;;;;5059599;28;20204;-74
2021/12/02 08:00:32;;;;;;;3.50;0.90;;;4.80;99.90;;;;;;5061463;28;20200;-74
2021/12/02 08:03:01;;;;;;;1.65;0.80;;;4.80;99.90;;;;;;5064237;28;20343;-74
2021/12/02 08:05:28;;;;;;;2.92;0.98;;;4.80;99.90;;;;;;5070552;28;20196;-75
2021/12/02 08:07:56;;;;;;;2.22;0.80;;;4.80;99.90;;;;;;5067857;28;20739;-74
2021/12/02 08:10:23;;;;;;;1.05;0.85;;;4.80;99.90;;;;;;5069627;28;20210;-74
2021/12/02 08:12:51;;;;;;;4.03;1.23;;;4.80;99.90;;;;;;5070453;28;20739;-74
2021/12/02 08:15:20;;;;;;;0.80;0.70;;;4.90;99.90;;;;;;5070498;28;20254;-74
2021/12/02 08:17:48;;;;;;;1.55;0.60;;;5.00;99.90;;;;;;5061753;28;20283;-75
2021/12/02 08:20:17;;;;;;;1.25;0.90;;;4.90;99.90;;;;;;5067182;28;20228;-75
2021/12/02 08:22:45;;;;;;;1.33;1.23;;;5.00;99.90;;;;;;5068884;28;20207;-75
2021/12/02 08:25:12;;;;;;;1.10;0.70;;;5.10;99.90;;;;;;5070646;28;20203;-74
2021/12/02 08:27:40;;;;;;;1.75;0.90;;;5.10;99.90;;;;;;5067919;28;20208;-73
2021/12/02 08:30:10;;;;;;;0.73;0.70;;;5.20;99.90;;;;;;5061236;28;20208;-75
2021/12/02 08:32:40;;;;;;;0.90;0.75;;;5.20;99.90;;;;;;5070062;28;20193;-73
2021/12/02 08:35:08;;;;;;;0.98;0.80;;;5.30;99.90;;;;;;5061029;28;20648;-73
2021/12/02 08:37:40;;;;;;;1.02;0.80;;;5.30;99.90;;;;;;5062985;28;20215;-74
2021/12/02 08:40:09;;;;;;;1.42;0.80;;;5.40;99.90;;;;;;5063079;28;20874;-73
2021/12/02 08:42:36;;;;;;;1.13;0.90;;;5.30;99.90;;;;;;5068458;28;20536;-74
2021/12/02 08:45:05;;;;;;;2.38;1.08;;;5.30;99.90;;;;;;5062224;28;20284;-74
2021/12/02 08:47:32;;;;;;;1.30;1.05;;;5.30;99.90;;;;;;5064981;28;20203;-73
2021/12/02 08:49:59;;;;;;;1.88;0.95;;;5.30;99.90;;;;;;5072536;28;20288;-73
2021/12/02 08:52:28;;;;;;;1.20;1.10;;;5.40;99.90;;;;;;5066294;28;20193;-74
2021/12/02 08:54:57;;;;;;;1.80;1.65;;;5.40;99.90;;;;;;5069119;28;20254;-74
2021/12/02 08:57:25;;;;;;;2.10;1.50;;;5.50;99.90;;;;;;5065749;28;20247;-73
2021/12/02 08:59:52;;;;;;;1.83;1.30;;;5.50;99.90;;;;;;5054679;28;20286;-74
2021/12/02 09:02:19;;;;;;;4.32;2.53;;;5.40;99.90;;;;;;5073371;28;20250;-74
2021/12/02 09:04:46;;;;;;;1.27;0.90;;;5.20;99.90;;;;;;5068171;28;20212;-75
2021/12/02 09:07:14;;;;;;;1.48;1.00;;;5.30;99.90;;;;;;5073149;28;20207;-75
2021/12/02 09:09:42;;;;;;;1.45;1.02;;;5.20;99.90;;;;;;5072066;28;20287;-75
2021/12/02 09:12:10;;;;;;;1.63;1.30;;;5.10;99.90;;;;;;5074011;28;20193;-75
2021/12/02 09:14:37;;;;;;;1.45;1.17;;;5.00;99.90;;;;;;5071922;28;20303;-75
2021/12/02 09:17:05;;;;;;;2.25;1.30;;;5.00;99.90;;;;;;5072518;28;20224;-73
2021/12/02 09:19:32;;;;;;;3.95;1.23;;;4.90;99.90;;;;;;5066470;28;20225;-73
2021/12/02 09:21:59;;;;;;;2.55;1.30;;;4.90;99.90;;;;;;5071386;28;20197;-73
2021/12/02 09:24:26;;;;;;;1.50;1.25;;;5.00;99.90;;;;;;5071719;28;20615;-73
2021/12/02 09:26:55;;;;;;;2.95;1.40;;;5.10;99.90;;;;;;5071668;28;20214;-75
2021/12/02 09:29:23;;;;;;;1.60;1.27;;;5.00;99.90;;;;;;5070814;28;20323;-75
2021/12/02 09:31:53;;;;;;;1.60;1.42;;;5.00;99.90;;;;;;5073681;28;20203;-75
2021/12/02 09:34:20;;;;;;;2.38;1.75;;;5.00;99.90;;;;;;5060928;28;20208;-74
2021/12/02 09:36:47;;;;;;;1.42;1.33;;;5.00;99.90;;;;;;5072671;28;20307;-73
2021/12/02 09:39:16;;;;;;;5.07;1.60;;;5.00;99.90;;;;;;5072196;28;20303;-73
2021/12/02 09:41:45;;;;;;;1.75;1.60;;;4.90;99.90;;;;;;5073387;28;20202;-74
2021/12/02 09:44:12;;;;;;;1.92;1.80;;;4.90;99.90;;;;;;5069350;28;20232;-73
2021/12/02 09:46:41;;;;;;;2.60;2.10;;;5.00;99.90;;;;;;5071443;28;20279;-73
2021/12/02 09:49:10;;;;;;;2.13;1.98;;;4.90;99.90;;;;;;5072721;28;20586;-72
2021/12/02 09:51:45;;;;;;;2.08;1.98;;;4.80;99.90;;;;;;5065310;28;20207;-75
2021/12/02 09:54:16;;;;;;;2.15;1.75;;;4.70;99.90;;;;;;5067457;28;20220;-74
2021/12/02 09:56:45;;;;;;;2.13;1.60;;;4.50;99.90;;;;;;5056915;28;20193;-75
2021/12/02 09:59:23;;;;;;;1.95;1.60;;;4.40;99.90;;;;;;5064403;28;20923;-75
2021/12/02 10:01:55;;;;;;;1.67;1.40;;;4.30;99.90;;;;;;5069004;28;20283;-74
2021/12/02 10:04:23;;;;;;;1.30;1.10;;;4.20;99.90;;;;;;5068240;28;20303;-75
2021/12/02 10:07:03;;;;;;;1.10;1.00;;;4.10;99.90;;;;;;5069234;28;20231;-75
2021/12/02 10:09:38;;;;;;;2.17;1.27;;;4.00;99.90;;;;;;5069540;28;20189;-75
2021/12/02 10:12:13;;;;;;;1.70;1.60;;;4.00;99.90;;;;;;5062709;28;20193;-75
2021/12/02 10:14:44;;;;;;;1.17;1.08;;;3.90;99.90;;;;;;5062799;28;20200;-74
2021/12/02 10:17:18;;;;;;;1.50;1.40;;;3.70;99.90;;;;;;5064729;28;20267;-75
2021/12/02 10:20:10;;;;;;;1.55;1.30;;;3.70;99.90;;;;;;5069632;28;20223;-75
2021/12/02 10:22:37;;;;;;;1.30;1.20;;;3.70;99.90;;;;;;5070726;28;20212;-74
2021/12/02 10:25:05;;;;;;;1.70;1.50;;;3.70;99.90;;;;;;5070355;28;20575;-75
2021/12/02 10:27:32;;;;;;;1.23;1.13;;;3.70;99.90;;;;;;5069245;28;20230;-74
2021/12/02 10:29:59;;;;;;;1.30;1.20;;;3.70;99.90;;;;;;5070866;28;20283;-75
2021/12/02 10:32:32;;;;;;;2.35;1.75;;;3.80;99.90;;;;;;5070894;28;20196;-74
2021/12/02 10:35:01;;;;;;;2.25;1.95;;;3.90;99.90;;;;;;5070228;28;20216;-75
2021/12/02 10:37:31;;;;;;;2.88;1.70;;;3.90;99.90;;;;;;5071785;28;20717;-75
2021/12/02 10:40:00;;;;;;;1.52;1.42;;;4.00;99.90;;;;;;5071192;28;20311;-75
2021/12/02 10:42:28;;;;;;;2.03;1.80;;;4.10;99.90;;;;;;5065798;28;20267;-74
2021/12/02 10:45:00;;;;;;;2.00;1.80;;;4.20;99.90;;;;;;5062721;28;20291;-74
2021/12/02 10:47:29;;;;;;;2.30;2.10;;;4.20;99.90;;;;;;5064377;28;20288;-74
2021/12/02 10:50:00;;;;;;;2.05;1.92;;;4.30;99.90;;;;;;5068794;28;20201;-75
2021/12/02 10:52:29;;;;;;;2.13;1.92;;;4.30;99.90;;;;;;5068772;28;20212;-74
2021/12/02 10:55:00;;;;;;;4.40;2.08;;;4.30;99.90;;;;;;5071099;28;20632;-75
2021/12/02 10:57:29;;;;;;;1.73;1.63;;;4.30;99.90;;;;;;5070417;28;20200;-74
2021/12/02 10:59:58;;;;;;;2.22;2.00;;;4.30;99.90;;;;;;5068196;28;20266;-74
2021/12/02 11:02:29;;;;;;;2.40;2.10;;;4.30;99.90;;;;;;5069776;28;20251;-75
2021/12/02 11:04:59;;;;;;;2.30;1.75;;;4.30;99.90;;;;;;5067050;28;20346;-75
2021/12/02 11:07:29;;;;;;;3.25;2.08;;;4.30;99.90;;;;;;5073946;28;20670;-74
2021/12/02 11:09:58;;;;;;;1.70;1.60;;;4.20;99.90;;;;;;5057345;28;20196;-74
2021/12/02 11:12:29;;;;;;;1.95;1.60;;;4.10;99.90;;;;;;5066198;28;20224;-75
2021/12/02 11:15:03;;;;;;;1.30;1.20;;;4.00;99.90;;;;;;5065583;28;20189;-75
2021/12/02 11:17:33;;;;;;;1.55;1.45;;;4.00;99.90;;;;;;5069264;28;20188;-74
2021/12/02 11:20:04;;;;;;;1.52;1.40;;;3.90;99.90;;;;;;5068135;28;20770;-75
2021/12/02 11:22:32;;;;;;;2.85;1.70;;;3.80;99.90;;;;;;5064085;28;21944;-75
2021/12/02 11:25:00;;;;;;;2.08;1.88;;;3.70;99.90;;;;;;5069720;28;20681;-75
2021/12/02 11:27:30;;;;;;;2.00;1.90;;;3.60;99.90;;;;;;5066556;28;20303;-74
2021/12/02 11:30:04;;;;;;;1.90;1.60;;;3.60;99.90;;;;;;5063678;28;20208;-75
2021/12/02 11:32:39;;;;;;;1.38;1.27;;;3.60;99.90;;;;;;5069816;28;20217;-75
2021/12/02 11:35:12;;;;;;;1.75;1.65;;;3.70;99.90;;;;;;5069531;28;20282;-74
2021/12/02 11:37:41;;;;;;;1.20;1.10;;;3.70;99.90;;;;;;5068493;28;20240;-75
2021/12/02 11:40:14;;;;;;;1.98;1.50;;;3.90;99.90;;;;;;5069276;28;20262;-75
2021/12/02 11:42:42;;;;;;;1.25;1.15;;;4.00;99.90;;;;;;5069865;28;20619;-74
2021/12/02 11:45:11;;;;;;;1.75;1.10;;;4.10;99.90;;;;;;5058499;28;20283;-75
2021/12/02 11:47:40;;;;;;;1.30;1.20;;;4.20;99.90;;;;;;5068532;28;20239;-73
2021/12/02 11:50:10;;;;;;;2.50;1.75;;;4.30;99.90;;;;;;5069402;28;20196;-73
2021/12/02 11:52:38;;;;;;;1.50;1.20;;;4.30;99.90;;;;;;5067648;28;20731;-73
2021/12/02 11:55:09;;;;;;;1.73;1.40;;;4.30;99.90;;;;;;5062945;28;20262;-72
2021/12/02 11:57:37;;;;;;;5.75;2.45;;;4.30;99.90;;;;;;5070110;28;20279;-73
2021/12/02 12:00:07;;;;;;;3.00;2.50;;;4.30;99.90;;;;;;5054979;28;20232;-71
2021/12/02 12:02:34;;;;;;;4.03;3.63;;;4.20;99.90;;;;;;5063893;28;20244;-74
2021/12/02 12:05:05;;;;;;;2.15;1.95;;;4.20;99.90;;;;;;5070987;28;20279;-74
2021/12/02 12:07:46;;;;;;;2.60;2.40;;;4.20;99.90;;;;;;5071031;28;20317;-74
2021/12/02 12:10:26;;;;;;;2.20;1.95;;;4.20;99.90;;;;;;5053952;28;20193;-75
2021/12/02 12:12:55;;;;;;;2.13;1.40;;;4.10;99.90;;;;;;5062840;28;20686;-74
2021/12/02 12:15:33;;;;;;;2.22;1.50;;;4.10;99.90;;;;;;5070396;28;20204;-74
2021/12/02 12:18:01;;;;;;;1.70;1.60;;;4.10;99.90;;;;;;5068894;28;20283;-74
2021/12/02 12:21:05;;;;;;;2.13;1.95;;;4.20;99.90;;;;;;5068715;28;20308;-74
2021/12/02 12:23:57;;;;;;;2.33;2.13;;;4.20;99.90;;;;;;5063101;28;20285;-74
2021/12/02 12:26:32;;;;;;;2.50;1.67;;;4.30;99.90;;;;;;5074176;28;20283;-74
2021/12/02 12:29:27;;;;;;;4.15;2.40;;;4.40;99.90;;;;;;5071772;28;21780;-74
2021/12/02 12:32:33;;;;;;;2.00;1.90;;;4.50;99.90;;;;;;5064450;28;20201;-74
2021/12/02 12:35:06;;;;;;;2.90;2.60;;;4.50;99.90;;;;;;5070352;28;20283;-74
2021/12/02 12:40:40;;;;;;;3.60;3.00;;;4.60;99.90;;;;;;5057192;28;20216;-74
2021/12/02 12:43:26;;;;;;;2.40;1.77;;;4.60;99.90;;;;;;5073270;28;20228;-74
2021/12/02 12:46:05;;;;;;;2.08;1.73;;;4.70;99.90;;;;;;5070897;28;20275;-74
2021/12/02 12:48:33;;;;;;;1.30;1.20;;;4.80;99.90;;;;;;5069104;28;20656;-74
2021/12/02 12:51:15;;;;;;;1.90;1.80;;;4.90;99.90;;;;;;5061288;28;20197;-74
2021/12/02 12:53:48;;;;;;;2.25;1.65;;;5.00;99.90;;;;;;5069576;28;20692;-75
2021/12/02 12:56:16;;;;;;;1.92;1.70;;;5.20;99.90;;;;;;5067552;28;20609;-74
2021/12/02 12:59:03;;;;;;;3.88;2.20;;;5.30;99.90;;;;;;5071769;28;20193;-74
2021/12/02 13:01:30;;;;;;;2.00;1.80;;;5.50;99.90;;;;;;5058556;28;20311;-74
2021/12/02 13:04:07;;;;;;;3.58;2.05;;;5.60;99.90;;;;;;5068730;28;20345;-74
2021/12/02 13:06:49;;;;;;;2.22;2.03;;;5.70;99.90;;;;;;5073871;28;20591;-74
2021/12/02 13:09:39;;;;;;;2.00;1.85;;;5.80;99.90;;;;;;5062418;28;20724;-73
2021/12/02 13:12:07;;;;;;;3.72;2.47;;;6.00;99.90;;;;;;5063971;28;20312;-74
2021/12/02 13:14:35;;;;;;;2.40;2.20;;;6.10;99.90;;;;;;5070149;28;20559;-74
2021/12/02 13:17:40;;;;;;;3.20;2.03;;;6.20;99.90;;;;;;5069851;28;20211;-74